Alyeska Resort Wx Sites
Hourly Roundup from Summit Site
ALYSUM 10/21/2017
Click Here to View Graph!

        DATE  TIME   Air  Wind  Wind  Wind   Rel  BATT Solar
                    Temp   Spd   Dir  Gust  Hum%  Volt Watts
                      F   AVG   AVG   MAX   AVG   AVG    M

  10/21/2017 12:00    19     8   332    12    98 14.33 79.03
  10/21/2017 11:00    19     6   346    10    96 13.33 65.30
  10/21/2017 10:00    19     5    69     8    95 12.73 17.14
  10/21/2017 09:00    19     3    50     7    95 12.66  0.68
  10/21/2017 08:00    19     2    14     5    96 12.70  0.00
  10/21/2017 07:00    19     5    77    11    92 12.75  0.00
  10/21/2017 06:00    19     7    84    18    94 12.78  0.00
  10/21/2017 05:00    18     9    79    18    97 12.81  0.00
  10/21/2017 04:00    18     9    84    14    98 12.83  0.00
  10/21/2017 03:00    18     7    80    13    96 12.84  0.00
  10/21/2017 02:00    17     4    94    15    97 12.84  0.00
  10/21/2017 01:00    16     4    93    12    90 12.85  0.00
  10/20/2017 24:00    17     5   142    15    83 12.93  0.00
  10/20/2017 23:00    17     3    81    14    79 13.11  0.00
  10/20/2017 22:00    17     3    82    12    79 13.35  0.00
  10/20/2017 21:00    17     8    86    19    79 13.61  0.00
  10/20/2017 20:00    16     9    82    16    78 13.90  0.01
  10/20/2017 19:00    16    12    75    18    78 14.57 10.67
  10/20/2017 18:00    16    11    84    17    77  0.00 76.00
  10/20/2017 17:00    16    10    84    18    77  0.00172.40
  10/20/2017 16:00    15     9    79    14    77  0.00243.80
  10/20/2017 15:00    15     7    82    13    75  0.00271.10
  10/20/2017 14:00    15     5    75     9    70  0.00278.70
  10/20/2017 13:00    16     3    69     8    60  0.00279.70


Click Here to View Graph!